sensor_id;sensor_type;location;lat;lon;timestamp;pressure;altitude;pressure_sealevel;temperature;humidity
85244;BME280;75643;56.928;41.094;2024-01-30T00:02:03;100702.84;;;-1.64;81.97
85244;BME280;75643;56.928;41.094;2024-01-30T00:04:29;100686.41;;;-1.65;82.05
85244;BME280;75643;56.928;41.094;2024-01-30T00:06:55;100706.97;;;-1.51;81.71
85244;BME280;75643;56.928;41.094;2024-01-30T00:09:23;100694.00;;;-1.51;81.79
85244;BME280;75643;56.928;41.094;2024-01-30T00:11:50;100688.00;;;-1.50;82.04
85244;BME280;75643;56.928;41.094;2024-01-30T00:14:16;100693.09;;;-1.52;81.86
85244;BME280;75643;56.928;41.094;2024-01-30T00:16:44;100697.25;;;-1.55;82.24
85244;BME280;75643;56.928;41.094;2024-01-30T00:19:10;100682.19;;;-1.62;81.96
85244;BME280;75643;56.928;41.094;2024-01-30T00:21:37;100668.44;;;-1.61;82.50
85244;BME280;75643;56.928;41.094;2024-01-30T00:24:04;100678.66;;;-1.47;82.16
85244;BME280;75643;56.928;41.094;2024-01-30T00:26:30;100694.53;;;-1.41;82.22
85244;BME280;75643;56.928;41.094;2024-01-30T00:28:56;100692.78;;;-1.42;82.07
85244;BME280;75643;56.928;41.094;2024-01-30T00:31:23;100682.44;;;-1.40;81.93
85244;BME280;75643;56.928;41.094;2024-01-30T00:33:49;100682.75;;;-1.34;82.33
85244;BME280;75643;56.928;41.094;2024-01-30T00:36:15;100673.06;;;-1.38;81.95
85244;BME280;75643;56.928;41.094;2024-01-30T00:38:41;100680.03;;;-1.37;82.19
85244;BME280;75643;56.928;41.094;2024-01-30T00:41:08;100675.47;;;-1.41;82.36
85244;BME280;75643;56.928;41.094;2024-01-30T00:43:36;100682.41;;;-1.42;82.69
85244;BME280;75643;56.928;41.094;2024-01-30T00:46:03;100663.34;;;-1.42;82.13
85244;BME280;75643;56.928;41.094;2024-01-30T00:48:29;100684.53;;;-1.33;82.59
85244;BME280;75643;56.928;41.094;2024-01-30T00:50:55;100678.38;;;-1.35;82.67
85244;BME280;75643;56.928;41.094;2024-01-30T00:53:24;100670.97;;;-1.28;82.54
85244;BME280;75643;56.928;41.094;2024-01-30T00:55:50;100665.72;;;-1.29;82.33
85244;BME280;75643;56.928;41.094;2024-01-30T00:58:16;100664.09;;;-1.27;82.82
85244;BME280;75643;56.928;41.094;2024-01-30T01:00:48;100636.66;;;-1.40;82.74
85244;BME280;75643;56.928;41.094;2024-01-30T01:03:14;100675.00;;;-1.16;82.55
85244;BME280;75643;56.928;41.094;2024-01-30T01:05:43;100670.84;;;-1.13;82.53
85244;BME280;75643;56.928;41.094;2024-01-30T01:08:12;100651.81;;;-1.13;82.27
85244;BME280;75643;56.928;41.094;2024-01-30T01:10:40;100675.16;;;-0.96;81.87
85244;BME280;75643;56.928;41.094;2024-01-30T01:13:07;100666.41;;;-0.98;82.06
85244;BME280;75643;56.928;41.094;2024-01-30T01:15:33;100669.28;;;-0.92;81.95
85244;BME280;75643;56.928;41.094;2024-01-30T01:18:00;100658.59;;;-0.98;81.98
85244;BME280;75643;56.928;41.094;2024-01-30T01:20:27;100653.34;;;-0.99;81.85
85244;BME280;75643;56.928;41.094;2024-01-30T01:22:55;100666.59;;;-0.93;82.11
85244;BME280;75643;56.928;41.094;2024-01-30T01:25:22;100653.34;;;-0.99;81.89
85244;BME280;75643;56.928;41.094;2024-01-30T01:27:48;100642.63;;;-1.07;81.92
85244;BME280;75643;56.928;41.094;2024-01-30T01:30:17;100670.38;;;-0.87;82.07
85244;BME280;75643;56.928;41.094;2024-01-30T01:32:51;100626.19;;;-1.06;82.25
85244;BME280;75643;56.928;41.094;2024-01-30T01:35:27;100662.59;;;-0.87;82.22
85244;BME280;75643;56.928;41.094;2024-01-30T01:37:54;100661.06;;;-0.83;82.32
85244;BME280;75643;56.928;41.094;2024-01-30T01:40:27;100634.44;;;-0.97;82.36
85244;BME280;75643;56.928;41.094;2024-01-30T01:42:56;100658.50;;;-0.82;81.95
85244;BME280;75643;56.928;41.094;2024-01-30T01:45:23;100656.06;;;-0.78;82.00
85244;BME280;75643;56.928;41.094;2024-01-30T01:47:52;100658.78;;;-0.75;81.95
85244;BME280;75643;56.928;41.094;2024-01-30T01:50:18;100655.25;;;-0.77;82.00
85244;BME280;75643;56.928;41.094;2024-01-30T01:52:50;100656.19;;;-0.75;82.24
85244;BME280;75643;56.928;41.094;2024-01-30T01:55:17;100661.47;;;-0.74;81.87
85244;BME280;75643;56.928;41.094;2024-01-30T01:57:47;100646.91;;;-0.70;81.93
85244;BME280;75643;56.928;41.094;2024-01-30T02:00:16;100653.09;;;-0.68;82.11
85244;BME280;75643;56.928;41.094;2024-01-30T02:02:45;100631.06;;;-0.76;81.84
85244;BME280;75643;56.928;41.094;2024-01-30T02:05:15;100655.06;;;-0.63;82.16
85244;BME280;75643;56.928;41.094;2024-01-30T02:07:42;100655.28;;;-0.58;81.61
85244;BME280;75643;56.928;41.094;2024-01-30T02:10:11;100659.81;;;-0.54;81.66
85244;BME280;75643;56.928;41.094;2024-01-30T02:12:38;100665.06;;;-0.53;82.03
85244;BME280;75643;56.928;41.094;2024-01-30T02:15:07;100657.22;;;-0.54;81.85
85244;BME280;75643;56.928;41.094;2024-01-30T02:17:35;100647.56;;;-0.57;81.63
85244;BME280;75643;56.928;41.094;2024-01-30T02:20:02;100668.81;;;-0.46;81.72
85244;BME280;75643;56.928;41.094;2024-01-30T02:22:32;100663.72;;;-0.45;81.69
85244;BME280;75643;56.928;41.094;2024-01-30T02:25:00;100649.84;;;-0.45;81.63
85244;BME280;75643;56.928;41.094;2024-01-30T02:27:26;100647.50;;;-0.39;81.67
85244;BME280;75643;56.928;41.094;2024-01-30T02:29:53;100641.22;;;-0.44;81.24
85244;BME280;75643;56.928;41.094;2024-01-30T02:32:22;100644.22;;;-0.35;81.02
85244;BME280;75643;56.928;41.094;2024-01-30T02:34:49;100569.88;;;-0.71;81.34
85244;BME280;75643;56.928;41.094;2024-01-30T02:37:19;100641.84;;;-0.30;81.18
85244;BME280;75643;56.928;41.094;2024-01-30T02:39:45;100644.66;;;-0.26;81.08
85244;BME280;75643;56.928;41.094;2024-01-30T02:42:12;100638.66;;;-0.25;80.65
85244;BME280;75643;56.928;41.094;2024-01-30T02:44:43;100645.75;;;-0.21;81.07
85244;BME280;75643;56.928;41.094;2024-01-30T02:47:11;100645.47;;;-0.27;81.17
85244;BME280;75643;56.928;41.094;2024-01-30T02:49:38;100637.06;;;-0.21;81.10
85244;BME280;75643;56.928;41.094;2024-01-30T02:52:04;100624.34;;;-0.34;80.65
85244;BME280;75643;56.928;41.094;2024-01-30T02:54:31;100648.63;;;-0.15;80.73
85244;BME280;75643;56.928;41.094;2024-01-30T02:56:57;100640.53;;;-0.21;80.90
85244;BME280;75643;56.928;41.094;2024-01-30T02:59:23;100630.06;;;-0.22;81.11
85244;BME280;75643;56.928;41.094;2024-01-30T03:01:49;100640.94;;;-0.12;80.77
85244;BME280;75643;56.928;41.094;2024-01-30T03:04:16;100652.44;;;-0.07;80.49
85244;BME280;75643;56.928;41.094;2024-01-30T03:06:46;100631.38;;;-0.13;80.46
85244;BME280;75643;56.928;41.094;2024-01-30T03:09:16;100636.84;;;-0.07;80.34
85244;BME280;75643;56.928;41.094;2024-01-30T03:11:42;100644.06;;;0.00;80.66
85244;BME280;75643;56.928;41.094;2024-01-30T03:14:09;100662.63;;;0.08;80.11
85244;BME280;75643;56.928;41.094;2024-01-30T03:16:37;100655.59;;;0.06;80.19
85244;BME280;75643;56.928;41.094;2024-01-30T03:19:06;100645.94;;;0.03;79.99
85244;BME280;75643;56.928;41.094;2024-01-30T03:21:33;100671.69;;;0.18;79.55
85244;BME280;75643;56.928;41.094;2024-01-30T03:24:00;100670.88;;;0.19;80.11
85244;BME280;75643;56.928;41.094;2024-01-30T03:26:26;100665.56;;;0.16;79.95
85244;BME280;75643;56.928;41.094;2024-01-30T03:28:52;100674.72;;;0.27;79.69
85244;BME280;75643;56.928;41.094;2024-01-30T03:31:18;100666.84;;;0.25;79.48
85244;BME280;75643;56.928;41.094;2024-01-30T03:33:44;100669.63;;;0.30;79.37
85244;BME280;75643;56.928;41.094;2024-01-30T03:36:12;100658.28;;;0.28;79.59
85244;BME280;75643;56.928;41.094;2024-01-30T03:38:38;100668.25;;;0.38;79.29
85244;BME280;75643;56.928;41.094;2024-01-30T03:41:07;100632.56;;;0.15;79.18
85244;BME280;75643;56.928;41.094;2024-01-30T03:43:33;100653.66;;;0.41;78.97
85244;BME280;75643;56.928;41.094;2024-01-30T03:46:01;100635.81;;;0.30;78.87
85244;BME280;75643;56.928;41.094;2024-01-30T03:48:30;100661.34;;;0.38;79.08
85244;BME280;75643;56.928;41.094;2024-01-30T03:50:57;100670.41;;;0.48;78.79
85244;BME280;75643;56.928;41.094;2024-01-30T03:53:23;100654.69;;;0.45;79.19
85244;BME280;75643;56.928;41.094;2024-01-30T03:55:49;100649.22;;;0.39;79.22
85244;BME280;75643;56.928;41.094;2024-01-30T03:58:15;100677.78;;;0.58;79.13
85244;BME280;75643;56.928;41.094;2024-01-30T04:00:41;100663.75;;;0.55;78.46
85244;BME280;75643;56.928;41.094;2024-01-30T04:03:12;100664.91;;;0.61;78.40
85244;BME280;75643;56.928;41.094;2024-01-30T04:05:38;100666.59;;;0.61;78.55
85244;BME280;75643;56.928;41.094;2024-01-30T04:08:05;100672.59;;;0.58;78.57
85244;BME280;75643;56.928;41.094;2024-01-30T04:10:31;100671.25;;;0.68;78.48
85244;BME280;75643;56.928;41.094;2024-01-30T04:12:57;100672.22;;;0.70;78.37
85244;BME280;75643;56.928;41.094;2024-01-30T04:15:23;100667.84;;;0.69;78.03
85244;BME280;75643;56.928;41.094;2024-01-30T04:17:49;100683.56;;;0.72;78.40
85244;BME280;75643;56.928;41.094;2024-01-30T04:20:15;100680.06;;;0.71;78.08
85244;BME280;75643;56.928;41.094;2024-01-30T04:22:45;100651.00;;;0.61;77.80
85244;BME280;75643;56.928;41.094;2024-01-30T04:25:13;100660.66;;;0.63;78.16
85244;BME280;75643;56.928;41.094;2024-01-30T04:27:39;100689.16;;;0.81;78.03
85244;BME280;75643;56.928;41.094;2024-01-30T04:30:07;100677.59;;;0.74;78.15
85244;BME280;75643;56.928;41.094;2024-01-30T04:32:33;100694.47;;;0.84;78.41
85244;BME280;75643;56.928;41.094;2024-01-30T04:34:59;100694.72;;;0.90;77.90
85244;BME280;75643;56.928;41.094;2024-01-30T04:37:26;100683.31;;;0.87;77.81
85244;BME280;75643;56.928;41.094;2024-01-30T04:39:52;100697.31;;;0.90;77.84
85244;BME280;75643;56.928;41.094;2024-01-30T04:42:18;100668.97;;;0.75;77.85
85244;BME280;75643;56.928;41.094;2024-01-30T04:44:44;100697.47;;;0.93;78.01
85244;BME280;75643;56.928;41.094;2024-01-30T04:47:11;100701.06;;;0.97;78.01
85244;BME280;75643;56.928;41.094;2024-01-30T04:49:40;100694.16;;;0.97;78.30
85244;BME280;75643;56.928;41.094;2024-01-30T04:52:07;100656.97;;;0.79;77.80
85244;BME280;75643;56.928;41.094;2024-01-30T04:54:35;100698.53;;;0.98;78.08
85244;BME280;75643;56.928;41.094;2024-01-30T04:57:02;100681.78;;;0.92;77.86
85244;BME280;75643;56.928;41.094;2024-01-30T04:59:29;100710.03;;;1.03;77.84
85244;BME280;75643;56.928;41.094;2024-01-30T05:01:56;100714.28;;;1.01;77.46
85244;BME280;75643;56.928;41.094;2024-01-30T05:04:22;100705.72;;;1.04;77.63
85244;BME280;75643;56.928;41.094;2024-01-30T05:06:51;100692.91;;;0.88;77.94
85244;BME280;75643;56.928;41.094;2024-01-30T05:09:17;100710.59;;;0.96;78.16
85244;BME280;75643;56.928;41.094;2024-01-30T05:11:44;100721.34;;;1.04;77.95
85244;BME280;75643;56.928;41.094;2024-01-30T05:14:11;100718.66;;;1.02;77.97
85244;BME280;75643;56.928;41.094;2024-01-30T05:16:37;100724.03;;;1.07;77.69
85244;BME280;75643;56.928;41.094;2024-01-30T05:19:04;100723.13;;;1.05;77.59
85244;BME280;75643;56.928;41.094;2024-01-30T05:21:30;100700.97;;;0.94;77.91
85244;BME280;75643;56.928;41.094;2024-01-30T05:23:59;100716.13;;;1.04;78.16
85244;BME280;75643;56.928;41.094;2024-01-30T05:26:25;100709.59;;;0.93;77.67
85244;BME280;75643;56.928;41.094;2024-01-30T05:28:52;100729.91;;;1.01;77.90
85244;BME280;75643;56.928;41.094;2024-01-30T05:31:18;100730.22;;;1.09;77.77
85244;BME280;75643;56.928;41.094;2024-01-30T05:33:45;100746.09;;;1.15;77.65
85244;BME280;75643;56.928;41.094;2024-01-30T05:36:14;100738.38;;;1.18;77.39
85244;BME280;75643;56.928;41.094;2024-01-30T05:38:40;100734.03;;;1.17;77.66
85244;BME280;75643;56.928;41.094;2024-01-30T05:41:06;100709.84;;;0.99;77.45
85244;BME280;75643;56.928;41.094;2024-01-30T05:43:33;100731.34;;;1.15;77.83
85244;BME280;75643;56.928;41.094;2024-01-30T05:46:00;100739.25;;;1.17;77.75
85244;BME280;75643;56.928;41.094;2024-01-30T05:48:26;100727.16;;;1.19;77.79
85244;BME280;75643;56.928;41.094;2024-01-30T05:50:53;100736.03;;;1.24;77.34
85244;BME280;75643;56.928;41.094;2024-01-30T05:53:19;100755.41;;;1.31;77.36
85244;BME280;75643;56.928;41.094;2024-01-30T05:55:46;100759.94;;;1.35;77.33
85244;BME280;75643;56.928;41.094;2024-01-30T05:58:12;100764.34;;;1.37;77.17
85244;BME280;75643;56.928;41.094;2024-01-30T06:00:38;100766.38;;;1.44;77.34
85244;BME280;75643;56.928;41.094;2024-01-30T06:03:04;100751.56;;;1.43;77.10
85244;BME280;75643;56.928;41.094;2024-01-30T06:05:31;100747.19;;;1.42;77.14
85244;BME280;75643;56.928;41.094;2024-01-30T06:07:57;100770.06;;;1.49;77.05
85244;BME280;75643;56.928;41.094;2024-01-30T06:10:23;100778.91;;;1.53;76.71
85244;BME280;75643;56.928;41.094;2024-01-30T06:12:49;100769.56;;;1.58;76.96
85244;BME280;75643;56.928;41.094;2024-01-30T06:15:15;100760.03;;;1.58;76.36
85244;BME280;75643;56.928;41.094;2024-01-30T06:17:41;100765.97;;;1.56;76.33
85244;BME280;75643;56.928;41.094;2024-01-30T06:20:08;100767.22;;;1.65;76.72
85244;BME280;75643;56.928;41.094;2024-01-30T06:22:34;100759.22;;;1.61;76.34
85244;BME280;75643;56.928;41.094;2024-01-30T06:25:01;100763.97;;;1.71;75.79
85244;BME280;75643;56.928;41.094;2024-01-30T06:27:27;100759.00;;;1.77;75.63
85244;BME280;75643;56.928;41.094;2024-01-30T06:29:53;100758.06;;;1.75;75.68
85244;BME280;75643;56.928;41.094;2024-01-30T06:32:20;100775.25;;;1.92;76.11
85244;BME280;75643;56.928;41.094;2024-01-30T06:34:46;100747.72;;;1.77;75.58
85244;BME280;75643;56.928;41.094;2024-01-30T06:37:15;100771.81;;;1.93;75.34
85244;BME280;75643;56.928;41.094;2024-01-30T06:39:42;100783.16;;;1.95;75.70
85244;BME280;75643;56.928;41.094;2024-01-30T06:42:08;100773.53;;;1.93;75.64
85244;BME280;75643;56.928;41.094;2024-01-30T06:44:34;100774.00;;;2.05;75.36
85244;BME280;75643;56.928;41.094;2024-01-30T06:47:02;100785.72;;;2.16;74.88
85244;BME280;75643;56.928;41.094;2024-01-30T06:49:29;100778.59;;;2.12;74.71
85244;BME280;75643;56.928;41.094;2024-01-30T06:51:56;100800.63;;;2.20;74.71
85244;BME280;75643;56.928;41.094;2024-01-30T06:54:23;100782.09;;;2.13;74.47
85244;BME280;75643;56.928;41.094;2024-01-30T06:56:49;100781.41;;;2.18;74.29
85244;BME280;75643;56.928;41.094;2024-01-30T06:59:15;100793.34;;;2.34;74.45
85244;BME280;75643;56.928;41.094;2024-01-30T07:01:43;100757.78;;;2.14;74.01
85244;BME280;75643;56.928;41.094;2024-01-30T07:04:10;100797.88;;;2.39;74.03
85244;BME280;75643;56.928;41.094;2024-01-30T07:06:36;100776.66;;;2.30;74.10
85244;BME280;75643;56.928;41.094;2024-01-30T07:09:02;100806.84;;;2.46;73.55
85244;BME280;75643;56.928;41.094;2024-01-30T07:11:33;100808.50;;;2.44;74.05
85244;BME280;75643;56.928;41.094;2024-01-30T07:14:02;100819.09;;;2.48;73.56
85244;BME280;75643;56.928;41.094;2024-01-30T07:16:30;100812.38;;;2.55;72.96
85244;BME280;75643;56.928;41.094;2024-01-30T07:18:56;100752.13;;;2.25;72.90
85244;BME280;75643;56.928;41.094;2024-01-30T07:21:23;100819.69;;;2.65;72.79
85244;BME280;75643;56.928;41.094;2024-01-30T07:23:55;100823.94;;;2.85;72.43
85244;BME280;75643;56.928;41.094;2024-01-30T07:26:24;100824.41;;;2.99;72.02
85244;BME280;75643;56.928;41.094;2024-01-30T07:34:49;100791.84;;;2.89;70.80
85244;BME280;75643;56.928;41.094;2024-01-30T07:49:23;100798.28;;;3.24;70.50
85244;BME280;75643;56.928;41.094;2024-01-30T07:58:20;100832.19;;;3.75;69.65
85244;BME280;75643;56.928;41.094;2024-01-30T08:00:47;100815.50;;;3.71;68.77
85244;BME280;75643;56.928;41.094;2024-01-30T08:03:13;100796.88;;;3.61;69.00
85244;BME280;75643;56.928;41.094;2024-01-30T08:05:42;100820.91;;;3.76;68.92
85244;BME280;75643;56.928;41.094;2024-01-30T08:08:08;100791.06;;;3.69;68.60
85244;BME280;75643;56.928;41.094;2024-01-30T08:10:34;100806.19;;;3.80;68.03
85244;BME280;75643;56.928;41.094;2024-01-30T08:13:02;100789.16;;;3.65;68.41
85244;BME280;75643;56.928;41.094;2024-01-30T08:15:30;100824.88;;;3.92;68.33
85244;BME280;75643;56.928;41.094;2024-01-30T08:17:56;100799.97;;;3.76;68.07
85244;BME280;75643;56.928;41.094;2024-01-30T08:39:08;100785.50;;;3.59;67.51
85244;BME280;75643;56.928;41.094;2024-01-30T08:41:35;100802.09;;;3.61;67.39
85244;BME280;75643;56.928;41.094;2024-01-30T08:44:03;100812.63;;;3.62;67.84
85244;BME280;75643;56.928;41.094;2024-01-30T08:46:33;100847.69;;;3.69;67.87
85244;BME280;75643;56.928;41.094;2024-01-30T08:48:59;100853.88;;;3.71;67.55
85244;BME280;75643;56.928;41.094;2024-01-30T08:51:26;100857.53;;;3.78;68.07
85244;BME280;75643;56.928;41.094;2024-01-30T08:53:52;100843.25;;;3.93;67.51
85244;BME280;75643;56.928;41.094;2024-01-30T08:56:20;100844.28;;;4.27;66.81
85244;BME280;75643;56.928;41.094;2024-01-30T08:58:49;100841.13;;;4.68;65.26
85244;BME280;75643;56.928;41.094;2024-01-30T09:01:15;100835.81;;;4.97;63.36
85244;BME280;75643;56.928;41.094;2024-01-30T09:03:41;100840.72;;;4.84;63.14
85244;BME280;75643;56.928;41.094;2024-01-30T09:06:10;100852.09;;;4.85;63.45
85244;BME280;75643;56.928;41.094;2024-01-30T09:08:36;100840.81;;;4.87;63.32
85244;BME280;75643;56.928;41.094;2024-01-30T09:11:08;100850.66;;;4.96;63.25
85244;BME280;75643;56.928;41.094;2024-01-30T09:13:38;100847.41;;;5.05;62.72
85244;BME280;75643;56.928;41.094;2024-01-30T09:16:05;100853.66;;;5.10;62.56
85244;BME280;75643;56.928;41.094;2024-01-30T09:18:33;100841.22;;;5.03;62.50
85244;BME280;75643;56.928;41.094;2024-01-30T09:21:00;100842.94;;;5.01;61.99
85244;BME280;75643;56.928;41.094;2024-01-30T09:23:27;100846.25;;;4.95;61.85
85244;BME280;75643;56.928;41.094;2024-01-30T09:25:53;100836.75;;;4.99;62.46
85244;BME280;75643;56.928;41.094;2024-01-30T09:28:20;100830.78;;;5.04;62.30
85244;BME280;75643;56.928;41.094;2024-01-30T09:30:50;100855.59;;;5.17;61.53
85244;BME280;75643;56.928;41.094;2024-01-30T09:51:05;100814.34;;;5.44;58.64
85244;BME280;75643;56.928;41.094;2024-01-30T09:56:23;100843.66;;;5.62;58.92
85244;BME280;75643;56.928;41.094;2024-01-30T10:01:49;100826.56;;;5.09;59.49
85244;BME280;75643;56.928;41.094;2024-01-30T10:07:25;100860.34;;;5.30;59.12
85244;BME280;75643;56.928;41.094;2024-01-30T10:12:56;100887.22;;;5.89;58.62
85244;BME280;75643;56.928;41.094;2024-01-30T10:15:22;100877.41;;;6.18;57.70
85244;BME280;75643;56.928;41.094;2024-01-30T10:17:50;100871.09;;;6.09;57.48
85244;BME280;75643;56.928;41.094;2024-01-30T10:20:16;100845.06;;;5.83;57.48
85244;BME280;75643;56.928;41.094;2024-01-30T10:22:44;100875.84;;;5.90;57.27
85244;BME280;75643;56.928;41.094;2024-01-30T10:25:12;100874.09;;;5.56;57.92
85244;BME280;75643;56.928;41.094;2024-01-30T10:27:42;100881.75;;;5.48;58.53
85244;BME280;75643;56.928;41.094;2024-01-30T10:30:08;100873.56;;;5.34;58.58
85244;BME280;75643;56.928;41.094;2024-01-30T10:32:35;100883.03;;;5.29;59.28
85244;BME280;75643;56.928;41.094;2024-01-30T10:35:02;100842.53;;;5.18;58.73
85244;BME280;75643;56.928;41.094;2024-01-30T10:37:30;100874.84;;;5.19;58.93
85244;BME280;75643;56.928;41.094;2024-01-30T10:40:02;100886.78;;;5.06;59.17
85244;BME280;75643;56.928;41.094;2024-01-30T10:42:36;100876.31;;;5.08;59.26
85244;BME280;75643;56.928;41.094;2024-01-30T10:45:10;100896.38;;;5.07;59.04
85244;BME280;75643;56.928;41.094;2024-01-30T10:47:52;100895.25;;;4.98;59.98
85244;BME280;75643;56.928;41.094;2024-01-30T10:50:19;100844.88;;;4.76;59.83
85244;BME280;75643;56.928;41.094;2024-01-30T10:52:48;100874.09;;;4.91;59.22
85244;BME280;75643;56.928;41.094;2024-01-30T10:55:16;100867.25;;;4.97;59.77
85244;BME280;75643;56.928;41.094;2024-01-30T10:57:51;100880.84;;;4.82;59.87
85244;BME280;75643;56.928;41.094;2024-01-30T11:03:08;100869.56;;;4.26;60.79
85244;BME280;75643;56.928;41.094;2024-01-30T11:09:03;100897.06;;;4.12;61.92
85244;BME280;75643;56.928;41.094;2024-01-30T11:11:30;100870.59;;;3.76;62.53
85244;BME280;75643;56.928;41.094;2024-01-30T11:16:52;100917.13;;;3.61;63.53
85244;BME280;75643;56.928;41.094;2024-01-30T11:28:18;100943.19;;;3.58;64.37
85244;BME280;75643;56.928;41.094;2024-01-30T11:30:44;100927.03;;;3.44;64.45
85244;BME280;75643;56.928;41.094;2024-01-30T11:33:15;100933.88;;;3.41;64.53
85244;BME280;75643;56.928;41.094;2024-01-30T11:35:52;100937.78;;;3.28;65.05
85244;BME280;75643;56.928;41.094;2024-01-30T11:38:19;100917.09;;;3.10;65.45
85244;BME280;75643;56.928;41.094;2024-01-30T11:43:58;100939.16;;;3.18;65.23
85244;BME280;75643;56.928;41.094;2024-01-30T11:46:49;100961.63;;;3.13;65.90
85244;BME280;75643;56.928;41.094;2024-01-30T11:49:16;100967.34;;;3.03;65.91
85244;BME280;75643;56.928;41.094;2024-01-30T11:51:47;100882.50;;;2.46;65.92
85244;BME280;75643;56.928;41.094;2024-01-30T11:54:17;100973.59;;;2.84;66.91
85244;BME280;75643;56.928;41.094;2024-01-30T11:56:44;100965.38;;;2.74;67.02
85244;BME280;75643;56.928;41.094;2024-01-30T11:59:13;100968.56;;;2.67;67.20
85244;BME280;75643;56.928;41.094;2024-01-30T12:01:40;100925.50;;;2.33;67.92
85244;BME280;75643;56.928;41.094;2024-01-30T12:06:36;100935.97;;;2.13;68.24
85244;BME280;75643;56.928;41.094;2024-01-30T12:09:03;100961.22;;;2.14;68.64
85244;BME280;75643;56.928;41.094;2024-01-30T12:11:47;100944.25;;;2.02;68.79
85244;BME280;75643;56.928;41.094;2024-01-30T12:14:14;100975.75;;;2.07;69.44
85244;BME280;75643;56.928;41.094;2024-01-30T12:16:40;100986.06;;;2.04;69.25
85244;BME280;75643;56.928;41.094;2024-01-30T12:19:09;100988.59;;;2.02;70.12
85244;BME280;75643;56.928;41.094;2024-01-30T12:21:38;100987.97;;;1.87;70.06
85244;BME280;75643;56.928;41.094;2024-01-30T12:24:05;100992.09;;;1.82;70.29
85244;BME280;75643;56.928;41.094;2024-01-30T12:26:33;100983.63;;;1.67;70.86
85244;BME280;75643;56.928;41.094;2024-01-30T12:29:00;100998.44;;;1.68;70.77
85244;BME280;75643;56.928;41.094;2024-01-30T12:31:32;101007.84;;;1.64;71.10
85244;BME280;75643;56.928;41.094;2024-01-30T12:34:01;100974.63;;;1.40;71.26
85244;BME280;75643;56.928;41.094;2024-01-30T12:36:29;101009.38;;;1.40;71.46
85244;BME280;75643;56.928;41.094;2024-01-30T12:38:57;100998.41;;;1.28;72.13
85244;BME280;75643;56.928;41.094;2024-01-30T12:41:23;100982.66;;;1.06;72.58
85244;BME280;75643;56.928;41.094;2024-01-30T12:43:54;101002.66;;;1.07;72.36
85244;BME280;75643;56.928;41.094;2024-01-30T12:46:20;101019.69;;;1.00;72.86
85244;BME280;75643;56.928;41.094;2024-01-30T12:48:47;101015.94;;;0.94;73.49
85244;BME280;75643;56.928;41.094;2024-01-30T12:51:13;100997.69;;;0.74;73.43
85244;BME280;75643;56.928;41.094;2024-01-30T12:53:39;101025.44;;;0.74;73.57
85244;BME280;75643;56.928;41.094;2024-01-30T12:56:06;100986.75;;;0.45;74.37
85244;BME280;75643;56.928;41.094;2024-01-30T12:58:35;101019.06;;;0.50;75.19
85244;BME280;75643;56.928;41.094;2024-01-30T13:01:03;101023.25;;;0.46;75.12
85244;BME280;75643;56.928;41.094;2024-01-30T13:03:29;101025.38;;;0.37;76.07
85244;BME280;75643;56.928;41.094;2024-01-30T13:05:56;101030.28;;;0.31;76.11
85244;BME280;75643;56.928;41.094;2024-01-30T13:08:23;101030.56;;;0.19;76.41
85244;BME280;75643;56.928;41.094;2024-01-30T13:10:50;101036.06;;;0.08;76.49
85244;BME280;75643;56.928;41.094;2024-01-30T13:13:17;101015.25;;;-0.10;76.75
85244;BME280;75643;56.928;41.094;2024-01-30T13:18:49;100980.34;;;-0.49;77.68
85244;BME280;75643;56.928;41.094;2024-01-30T13:21:15;101022.69;;;-0.34;78.27
85244;BME280;75643;56.928;41.094;2024-01-30T13:23:42;101009.25;;;-0.43;78.78
85244;BME280;75643;56.928;41.094;2024-01-30T13:26:12;101014.25;;;-0.46;79.36
85244;BME280;75643;56.928;41.094;2024-01-30T13:28:38;101017.06;;;-0.59;79.63
85244;BME280;75643;56.928;41.094;2024-01-30T13:31:04;101024.53;;;-0.65;79.59
85244;BME280;75643;56.928;41.094;2024-01-30T13:33:34;101033.63;;;-0.73;80.29
85244;BME280;75643;56.928;41.094;2024-01-30T13:36:01;100968.72;;;-1.22;80.22
85244;BME280;75643;56.928;41.094;2024-01-30T13:50:07;101045.47;;;-1.26;81.99
85244;BME280;75643;56.928;41.094;2024-01-30T13:52:33;101028.09;;;-1.43;81.85
85244;BME280;75643;56.928;41.094;2024-01-30T13:55:00;101059.81;;;-1.32;82.44
85244;BME280;75643;56.928;41.094;2024-01-30T13:57:26;101076.03;;;-1.36;82.55
85244;BME280;75643;56.928;41.094;2024-01-30T13:59:52;101031.81;;;-1.69;82.59
85244;BME280;75643;56.928;41.094;2024-01-30T14:05:21;101071.59;;;-1.53;83.06
85244;BME280;75643;56.928;41.094;2024-01-30T14:07:51;101035.66;;;-1.77;83.69
85244;BME280;75643;56.928;41.094;2024-01-30T14:19:12;101079.38;;;-1.53;84.54
85244;BME280;75643;56.928;41.094;2024-01-30T14:21:43;101043.97;;;-1.82;84.61
85244;BME280;75643;56.928;41.094;2024-01-30T14:24:09;101087.50;;;-1.62;84.81
85244;BME280;75643;56.928;41.094;2024-01-30T14:26:36;101076.16;;;-1.79;85.10
85244;BME280;75643;56.928;41.094;2024-01-30T14:29:03;101041.16;;;-2.01;84.61
85244;BME280;75643;56.928;41.094;2024-01-30T14:31:30;101050.00;;;-1.98;85.01
85244;BME280;75643;56.928;41.094;2024-01-30T14:33:58;101058.03;;;-1.93;85.34
85244;BME280;75643;56.928;41.094;2024-01-30T14:36:26;101102.59;;;-1.70;85.53
85244;BME280;75643;56.928;41.094;2024-01-30T14:38:57;101072.13;;;-1.88;85.94
85244;BME280;75643;56.928;41.094;2024-01-30T14:41:24;101023.66;;;-2.20;85.92
85244;BME280;75643;56.928;41.094;2024-01-30T14:43:55;101014.53;;;-2.28;85.81
85244;BME280;75643;56.928;41.094;2024-01-30T14:46:21;101080.19;;;-1.98;86.02
85244;BME280;75643;56.928;41.094;2024-01-30T14:48:48;101047.66;;;-2.23;85.92
85244;BME280;75643;56.928;41.094;2024-01-30T14:51:20;101095.84;;;-1.97;86.30